sensor_id;sensor_type;location;lat;lon;timestamp;P1;durP1;ratioP1;P2;durP2;ratioP2
9968;SDS011;5025;48.890;9.278;2023-08-12T00:01:00;4.63;;;4.37;;
9968;SDS011;5025;48.890;9.278;2023-08-12T00:03:26;4.67;;;4.27;;
9968;SDS011;5025;48.890;9.278;2023-08-12T00:05:52;4.40;;;4.13;;
9968;SDS011;5025;48.890;9.278;2023-08-12T00:08:17;4.23;;;4.03;;
9968;SDS011;5025;48.890;9.278;2023-08-12T00:10:43;4.60;;;4.30;;
9968;SDS011;5025;48.890;9.278;2023-08-12T00:13:08;4.30;;;4.00;;
9968;SDS011;5025;48.890;9.278;2023-08-12T00:15:33;4.80;;;4.50;;
9968;SDS011;5025;48.890;9.278;2023-08-12T00:17:59;4.60;;;4.30;;
9968;SDS011;5025;48.890;9.278;2023-08-12T00:20:24;5.43;;;4.13;;
9968;SDS011;5025;48.890;9.278;2023-08-12T00:22:50;4.50;;;4.20;;
9968;SDS011;5025;48.890;9.278;2023-08-12T00:25:15;4.67;;;4.30;;
9968;SDS011;5025;48.890;9.278;2023-08-12T00:27:40;4.57;;;4.27;;
9968;SDS011;5025;48.890;9.278;2023-08-12T00:30:06;4.33;;;4.03;;
9968;SDS011;5025;48.890;9.278;2023-08-12T00:32:32;4.13;;;3.90;;
9968;SDS011;5025;48.890;9.278;2023-08-12T00:34:57;4.43;;;4.13;;
9968;SDS011;5025;48.890;9.278;2023-08-12T00:37:22;4.23;;;3.93;;
9968;SDS011;5025;48.890;9.278;2023-08-12T00:39:48;4.03;;;3.83;;
9968;SDS011;5025;48.890;9.278;2023-08-12T00:42:13;4.57;;;4.10;;
9968;SDS011;5025;48.890;9.278;2023-08-12T00:44:38;5.33;;;4.93;;
9968;SDS011;5025;48.890;9.278;2023-08-12T00:47:03;5.13;;;4.63;;
9968;SDS011;5025;48.890;9.278;2023-08-12T00:49:29;4.93;;;4.53;;
9968;SDS011;5025;48.890;9.278;2023-08-12T00:51:57;5.00;;;4.60;;
9968;SDS011;5025;48.890;9.278;2023-08-12T00:54:22;4.33;;;4.03;;
9968;SDS011;5025;48.890;9.278;2023-08-12T00:56:51;4.67;;;4.37;;
9968;SDS011;5025;48.890;9.278;2023-08-12T00:59:18;4.40;;;4.10;;
9968;SDS011;5025;48.890;9.278;2023-08-12T01:01:44;4.70;;;4.40;;
9968;SDS011;5025;48.890;9.278;2023-08-12T01:04:10;4.20;;;4.00;;
9968;SDS011;5025;48.890;9.278;2023-08-12T01:06:36;4.30;;;4.10;;
9968;SDS011;5025;48.890;9.278;2023-08-12T01:09:02;4.33;;;4.03;;
9968;SDS011;5025;48.890;9.278;2023-08-12T01:11:36;4.03;;;3.73;;
9968;SDS011;5025;48.890;9.278;2023-08-12T01:14:18;4.00;;;3.80;;
9968;SDS011;5025;48.890;9.278;2023-08-12T01:16:49;3.93;;;3.73;;
9968;SDS011;5025;48.890;9.278;2023-08-12T01:19:21;4.10;;;3.80;;
9968;SDS011;5025;48.890;9.278;2023-08-12T01:21:54;4.00;;;3.70;;
9968;SDS011;5025;48.890;9.278;2023-08-12T01:24:25;4.53;;;4.23;;
9968;SDS011;5025;48.890;9.278;2023-08-12T01:26:50;3.97;;;3.77;;
9968;SDS011;5025;48.890;9.278;2023-08-12T01:29:16;4.27;;;4.00;;
9968;SDS011;5025;48.890;9.278;2023-08-12T01:31:45;3.90;;;3.60;;
9968;SDS011;5025;48.890;9.278;2023-08-12T01:34:21;3.80;;;3.60;;
9968;SDS011;5025;48.890;9.278;2023-08-12T01:37:08;4.30;;;4.00;;
9968;SDS011;5025;48.890;9.278;2023-08-12T01:39:37;4.17;;;3.87;;
9968;SDS011;5025;48.890;9.278;2023-08-12T01:42:04;4.23;;;4.00;;
9968;SDS011;5025;48.890;9.278;2023-08-12T01:44:30;4.43;;;4.13;;
9968;SDS011;5025;48.890;9.278;2023-08-12T01:46:56;4.80;;;4.50;;
9968;SDS011;5025;48.890;9.278;2023-08-12T01:49:22;4.10;;;3.90;;
9968;SDS011;5025;48.890;9.278;2023-08-12T01:51:49;4.40;;;4.10;;
9968;SDS011;5025;48.890;9.278;2023-08-12T01:54:14;4.37;;;4.17;;
9968;SDS011;5025;48.890;9.278;2023-08-12T01:56:39;4.10;;;3.80;;
9968;SDS011;5025;48.890;9.278;2023-08-12T01:59:05;3.87;;;3.67;;
9968;SDS011;5025;48.890;9.278;2023-08-12T02:01:30;4.47;;;4.17;;
9968;SDS011;5025;48.890;9.278;2023-08-12T02:03:55;4.23;;;3.93;;
9968;SDS011;5025;48.890;9.278;2023-08-12T02:06:21;4.30;;;4.10;;
9968;SDS011;5025;48.890;9.278;2023-08-12T02:08:46;4.20;;;3.90;;
9968;SDS011;5025;48.890;9.278;2023-08-12T02:11:12;4.43;;;4.13;;
9968;SDS011;5025;48.890;9.278;2023-08-12T02:13:37;4.10;;;3.90;;
9968;SDS011;5025;48.890;9.278;2023-08-12T02:16:02;4.07;;;3.87;;
9968;SDS011;5025;48.890;9.278;2023-08-12T02:18:27;4.53;;;4.23;;
9968;SDS011;5025;48.890;9.278;2023-08-12T02:20:53;4.13;;;3.87;;
9968;SDS011;5025;48.890;9.278;2023-08-12T02:23:18;4.30;;;4.00;;
9968;SDS011;5025;48.890;9.278;2023-08-12T02:25:43;4.23;;;3.90;;
9968;SDS011;5025;48.890;9.278;2023-08-12T02:28:09;4.30;;;4.10;;
9968;SDS011;5025;48.890;9.278;2023-08-12T02:30:35;4.60;;;4.20;;
9968;SDS011;5025;48.890;9.278;2023-08-12T02:33:00;3.90;;;3.70;;
9968;SDS011;5025;48.890;9.278;2023-08-12T02:35:25;4.30;;;4.10;;
9968;SDS011;5025;48.890;9.278;2023-08-12T02:37:50;4.00;;;3.70;;
9968;SDS011;5025;48.890;9.278;2023-08-12T02:40:16;4.10;;;3.90;;
9968;SDS011;5025;48.890;9.278;2023-08-12T02:42:41;4.47;;;4.07;;
9968;SDS011;5025;48.890;9.278;2023-08-12T02:45:06;4.30;;;4.10;;
9968;SDS011;5025;48.890;9.278;2023-08-12T02:47:32;4.60;;;4.30;;
9968;SDS011;5025;48.890;9.278;2023-08-12T02:49:57;4.40;;;4.10;;
9968;SDS011;5025;48.890;9.278;2023-08-12T02:52:22;4.00;;;3.80;;
9968;SDS011;5025;48.890;9.278;2023-08-12T02:54:48;4.03;;;3.80;;
9968;SDS011;5025;48.890;9.278;2023-08-12T02:57:13;4.00;;;3.80;;
9968;SDS011;5025;48.890;9.278;2023-08-12T02:59:38;4.30;;;4.00;;
9968;SDS011;5025;48.890;9.278;2023-08-12T03:02:03;4.13;;;3.83;;
9968;SDS011;5025;48.890;9.278;2023-08-12T03:04:29;3.83;;;3.63;;
9968;SDS011;5025;48.890;9.278;2023-08-12T03:06:54;3.80;;;3.60;;
9968;SDS011;5025;48.890;9.278;2023-08-12T03:09:19;4.00;;;3.80;;
9968;SDS011;5025;48.890;9.278;2023-08-12T03:11:45;4.30;;;4.00;;
9968;SDS011;5025;48.890;9.278;2023-08-12T03:14:10;3.73;;;3.53;;
9968;SDS011;5025;48.890;9.278;2023-08-12T03:16:36;4.23;;;4.00;;
9968;SDS011;5025;48.890;9.278;2023-08-12T03:19:01;3.83;;;3.63;;
9968;SDS011;5025;48.890;9.278;2023-08-12T03:21:26;4.03;;;3.83;;
9968;SDS011;5025;48.890;9.278;2023-08-12T03:23:51;3.90;;;3.70;;
9968;SDS011;5025;48.890;9.278;2023-08-12T03:26:17;4.13;;;3.93;;
9968;SDS011;5025;48.890;9.278;2023-08-12T03:28:42;4.23;;;3.97;;
9968;SDS011;5025;48.890;9.278;2023-08-12T03:31:07;4.50;;;4.20;;
9968;SDS011;5025;48.890;9.278;2023-08-12T03:33:32;3.57;;;3.37;;
9968;SDS011;5025;48.890;9.278;2023-08-12T03:35:58;4.30;;;4.00;;
9968;SDS011;5025;48.890;9.278;2023-08-12T03:38:24;4.10;;;3.80;;
9968;SDS011;5025;48.890;9.278;2023-08-12T03:40:49;3.80;;;3.60;;
9968;SDS011;5025;48.890;9.278;2023-08-12T03:43:15;3.67;;;3.47;;
9968;SDS011;5025;48.890;9.278;2023-08-12T03:45:41;4.27;;;4.03;;
9968;SDS011;5025;48.890;9.278;2023-08-12T03:48:07;4.20;;;3.90;;
9968;SDS011;5025;48.890;9.278;2023-08-12T03:50:36;4.37;;;4.00;;
9968;SDS011;5025;48.890;9.278;2023-08-12T03:53:02;4.43;;;4.13;;
9968;SDS011;5025;48.890;9.278;2023-08-12T03:55:29;4.60;;;4.30;;
9968;SDS011;5025;48.890;9.278;2023-08-12T03:57:58;4.43;;;4.07;;
9968;SDS011;5025;48.890;9.278;2023-08-12T04:00:24;3.90;;;3.70;;
9968;SDS011;5025;48.890;9.278;2023-08-12T04:02:50;4.30;;;4.00;;
9968;SDS011;5025;48.890;9.278;2023-08-12T04:05:15;4.33;;;4.03;;
9968;SDS011;5025;48.890;9.278;2023-08-12T04:07:40;3.97;;;3.77;;
9968;SDS011;5025;48.890;9.278;2023-08-12T04:10:06;4.07;;;3.87;;
9968;SDS011;5025;48.890;9.278;2023-08-12T04:12:31;4.17;;;3.87;;
9968;SDS011;5025;48.890;9.278;2023-08-12T04:14:56;4.50;;;4.10;;
9968;SDS011;5025;48.890;9.278;2023-08-12T04:17:22;4.03;;;3.83;;
9968;SDS011;5025;48.890;9.278;2023-08-12T04:19:47;4.33;;;3.93;;
9968;SDS011;5025;48.890;9.278;2023-08-12T04:22:12;4.90;;;4.40;;
9968;SDS011;5025;48.890;9.278;2023-08-12T04:24:38;5.10;;;4.70;;
9968;SDS011;5025;48.890;9.278;2023-08-12T04:27:03;4.87;;;4.43;;
9968;SDS011;5025;48.890;9.278;2023-08-12T04:29:28;4.60;;;4.30;;
9968;SDS011;5025;48.890;9.278;2023-08-12T04:31:53;4.47;;;4.17;;
9968;SDS011;5025;48.890;9.278;2023-08-12T04:34:19;4.30;;;4.00;;
9968;SDS011;5025;48.890;9.278;2023-08-12T04:36:44;4.30;;;4.00;;
9968;SDS011;5025;48.890;9.278;2023-08-12T04:39:09;4.00;;;3.80;;
9968;SDS011;5025;48.890;9.278;2023-08-12T04:41:35;4.53;;;4.23;;
9968;SDS011;5025;48.890;9.278;2023-08-12T04:44:00;4.50;;;4.20;;
9968;SDS011;5025;48.890;9.278;2023-08-12T04:46:25;4.03;;;3.63;;
9968;SDS011;5025;48.890;9.278;2023-08-12T04:48:51;4.30;;;4.00;;
9968;SDS011;5025;48.890;9.278;2023-08-12T04:51:16;4.20;;;3.90;;
9968;SDS011;5025;48.890;9.278;2023-08-12T04:53:41;4.03;;;3.80;;
9968;SDS011;5025;48.890;9.278;2023-08-12T04:56:07;4.13;;;3.90;;
9968;SDS011;5025;48.890;9.278;2023-08-12T04:58:32;4.37;;;4.07;;
9968;SDS011;5025;48.890;9.278;2023-08-12T05:00:57;4.00;;;3.80;;
9968;SDS011;5025;48.890;9.278;2023-08-12T05:03:22;4.37;;;4.10;;
9968;SDS011;5025;48.890;9.278;2023-08-12T05:05:51;4.43;;;4.13;;
9968;SDS011;5025;48.890;9.278;2023-08-12T05:08:17;4.20;;;3.90;;
9968;SDS011;5025;48.890;9.278;2023-08-12T05:10:43;4.20;;;3.90;;
9968;SDS011;5025;48.890;9.278;2023-08-12T05:13:08;4.10;;;3.90;;
9968;SDS011;5025;48.890;9.278;2023-08-12T05:15:33;4.00;;;3.80;;
9968;SDS011;5025;48.890;9.278;2023-08-12T05:18:01;4.60;;;4.30;;
9968;SDS011;5025;48.890;9.278;2023-08-12T05:20:26;5.27;;;4.87;;
9968;SDS011;5025;48.890;9.278;2023-08-12T05:22:52;4.50;;;4.20;;
9968;SDS011;5025;48.890;9.278;2023-08-12T05:25:18;4.90;;;4.60;;
9968;SDS011;5025;48.890;9.278;2023-08-12T05:27:43;4.97;;;4.67;;
9968;SDS011;5025;48.890;9.278;2023-08-12T05:30:08;4.57;;;4.27;;
9968;SDS011;5025;48.890;9.278;2023-08-12T05:32:34;4.90;;;4.60;;
9968;SDS011;5025;48.890;9.278;2023-08-12T05:34:59;4.50;;;4.20;;
9968;SDS011;5025;48.890;9.278;2023-08-12T05:37:24;4.37;;;4.03;;
9968;SDS011;5025;48.890;9.278;2023-08-12T05:39:50;5.13;;;4.67;;
9968;SDS011;5025;48.890;9.278;2023-08-12T05:42:15;5.37;;;4.13;;
9968;SDS011;5025;48.890;9.278;2023-08-12T05:44:41;4.60;;;4.30;;
9968;SDS011;5025;48.890;9.278;2023-08-12T05:47:07;5.33;;;4.93;;
9968;SDS011;5025;48.890;9.278;2023-08-12T05:49:32;5.60;;;5.10;;
9968;SDS011;5025;48.890;9.278;2023-08-12T05:51:57;5.40;;;5.00;;
9968;SDS011;5025;48.890;9.278;2023-08-12T05:54:23;5.57;;;5.20;;
9968;SDS011;5025;48.890;9.278;2023-08-12T05:56:48;4.70;;;4.40;;
9968;SDS011;5025;48.890;9.278;2023-08-12T05:59:13;4.50;;;4.23;;
9968;SDS011;5025;48.890;9.278;2023-08-12T06:01:38;4.90;;;4.60;;
9968;SDS011;5025;48.890;9.278;2023-08-12T06:04:04;4.30;;;4.00;;
9968;SDS011;5025;48.890;9.278;2023-08-12T06:06:29;4.53;;;4.23;;
9968;SDS011;5025;48.890;9.278;2023-08-12T06:08:54;4.60;;;4.30;;
9968;SDS011;5025;48.890;9.278;2023-08-12T06:11:19;4.53;;;4.13;;
9968;SDS011;5025;48.890;9.278;2023-08-12T06:13:44;3.97;;;3.78;;
9968;SDS011;5025;48.890;9.278;2023-08-12T06:16:10;4.40;;;4.10;;
9968;SDS011;5025;48.890;9.278;2023-08-12T06:18:35;5.50;;;5.10;;
9968;SDS011;5025;48.890;9.278;2023-08-12T06:21:00;5.30;;;5.00;;
9968;SDS011;5025;48.890;9.278;2023-08-12T06:23:25;5.07;;;4.70;;
9968;SDS011;5025;48.890;9.278;2023-08-12T06:25:51;5.77;;;5.37;;
9968;SDS011;5025;48.890;9.278;2023-08-12T06:28:16;17.57;;;10.30;;
9968;SDS011;5025;48.890;9.278;2023-08-12T06:30:44;15.20;;;10.63;;
9968;SDS011;5025;48.890;9.278;2023-08-12T06:33:10;16.70;;;11.83;;
9968;SDS011;5025;48.890;9.278;2023-08-12T06:35:35;16.30;;;11.33;;
9968;SDS011;5025;48.890;9.278;2023-08-12T06:38:01;15.00;;;10.23;;
9968;SDS011;5025;48.890;9.278;2023-08-12T06:40:26;11.57;;;9.03;;
9968;SDS011;5025;48.890;9.278;2023-08-12T06:42:52;8.87;;;7.90;;
9968;SDS011;5025;48.890;9.278;2023-08-12T06:45:18;8.37;;;7.53;;
9968;SDS011;5025;48.890;9.278;2023-08-12T06:47:43;6.87;;;6.33;;
9968;SDS011;5025;48.890;9.278;2023-08-12T06:50:08;6.63;;;6.03;;
9968;SDS011;5025;48.890;9.278;2023-08-12T06:52:33;6.00;;;5.50;;
9968;SDS011;5025;48.890;9.278;2023-08-12T06:54:59;5.67;;;5.20;;
9968;SDS011;5025;48.890;9.278;2023-08-12T06:57:24;5.60;;;5.10;;
9968;SDS011;5025;48.890;9.278;2023-08-12T06:59:49;5.03;;;4.73;;
9968;SDS011;5025;48.890;9.278;2023-08-12T07:02:15;5.47;;;4.80;;
9968;SDS011;5025;48.890;9.278;2023-08-12T07:04:40;5.87;;;5.37;;
9968;SDS011;5025;48.890;9.278;2023-08-12T07:07:05;5.00;;;4.70;;
9968;SDS011;5025;48.890;9.278;2023-08-12T07:09:30;4.90;;;4.50;;
9968;SDS011;5025;48.890;9.278;2023-08-12T07:11:56;4.67;;;4.43;;
9968;SDS011;5025;48.890;9.278;2023-08-12T07:14:21;5.10;;;4.60;;
9968;SDS011;5025;48.890;9.278;2023-08-12T07:16:47;5.47;;;5.07;;
9968;SDS011;5025;48.890;9.278;2023-08-12T07:19:12;5.30;;;4.80;;
9968;SDS011;5025;48.890;9.278;2023-08-12T07:21:37;5.30;;;4.80;;
9968;SDS011;5025;48.890;9.278;2023-08-12T07:24:02;5.10;;;4.80;;
9968;SDS011;5025;48.890;9.278;2023-08-12T07:26:28;4.93;;;4.63;;
9968;SDS011;5025;48.890;9.278;2023-08-12T07:28:53;5.20;;;4.80;;
9968;SDS011;5025;48.890;9.278;2023-08-12T07:31:19;5.40;;;5.00;;
9968;SDS011;5025;48.890;9.278;2023-08-12T07:33:44;5.00;;;4.70;;
9968;SDS011;5025;48.890;9.278;2023-08-12T07:36:09;4.80;;;4.50;;
9968;SDS011;5025;48.890;9.278;2023-08-12T07:38:34;4.90;;;4.60;;
9968;SDS011;5025;48.890;9.278;2023-08-12T07:41:00;4.30;;;4.10;;
9968;SDS011;5025;48.890;9.278;2023-08-12T07:43:25;4.30;;;4.00;;
9968;SDS011;5025;48.890;9.278;2023-08-12T07:45:51;4.50;;;4.20;;
9968;SDS011;5025;48.890;9.278;2023-08-12T07:48:17;4.60;;;4.20;;
9968;SDS011;5025;48.890;9.278;2023-08-12T07:50:43;4.40;;;4.10;;
9968;SDS011;5025;48.890;9.278;2023-08-12T07:53:08;4.10;;;3.90;;
9968;SDS011;5025;48.890;9.278;2023-08-12T07:55:34;4.63;;;4.33;;
9968;SDS011;5025;48.890;9.278;2023-08-12T07:57:59;4.60;;;4.30;;
9968;SDS011;5025;48.890;9.278;2023-08-12T08:00:24;4.13;;;3.93;;
9968;SDS011;5025;48.890;9.278;2023-08-12T08:02:50;4.60;;;4.30;;
9968;SDS011;5025;48.890;9.278;2023-08-12T08:05:15;4.60;;;4.33;;
9968;SDS011;5025;48.890;9.278;2023-08-12T08:07:40;4.70;;;4.40;;
9968;SDS011;5025;48.890;9.278;2023-08-12T08:10:06;4.87;;;4.57;;
9968;SDS011;5025;48.890;9.278;2023-08-12T08:12:31;5.27;;;4.77;;
9968;SDS011;5025;48.890;9.278;2023-08-12T08:14:56;4.70;;;4.40;;
9968;SDS011;5025;48.890;9.278;2023-08-12T08:17:22;4.77;;;4.47;;
9968;SDS011;5025;48.890;9.278;2023-08-12T08:19:47;4.97;;;4.50;;
9968;SDS011;5025;48.890;9.278;2023-08-12T08:22:12;4.70;;;4.40;;
9968;SDS011;5025;48.890;9.278;2023-08-12T08:24:38;4.80;;;4.50;;
9968;SDS011;5025;48.890;9.278;2023-08-12T08:27:03;5.10;;;4.80;;
9968;SDS011;5025;48.890;9.278;2023-08-12T08:29:29;4.60;;;4.30;;
9968;SDS011;5025;48.890;9.278;2023-08-12T08:31:55;4.20;;;4.00;;
9968;SDS011;5025;48.890;9.278;2023-08-12T08:34:20;4.87;;;4.47;;
9968;SDS011;5025;48.890;9.278;2023-08-12T08:36:45;3.90;;;3.70;;
9968;SDS011;5025;48.890;9.278;2023-08-12T08:39:10;3.90;;;3.70;;
9968;SDS011;5025;48.890;9.278;2023-08-12T08:41:37;3.70;;;3.50;;
9968;SDS011;5025;48.890;9.278;2023-08-12T08:44:03;4.13;;;3.93;;
9968;SDS011;5025;48.890;9.278;2023-08-12T08:46:32;3.77;;;3.57;;
9968;SDS011;5025;48.890;9.278;2023-08-12T08:48:58;4.17;;;3.77;;
9968;SDS011;5025;48.890;9.278;2023-08-12T08:51:25;4.77;;;4.47;;
9968;SDS011;5025;48.890;9.278;2023-08-12T08:53:50;4.13;;;3.83;;
9968;SDS011;5025;48.890;9.278;2023-08-12T08:56:19;4.10;;;3.90;;
9968;SDS011;5025;48.890;9.278;2023-08-12T08:58:45;4.47;;;4.17;;
9968;SDS011;5025;48.890;9.278;2023-08-12T09:01:10;4.37;;;3.97;;
9968;SDS011;5025;48.890;9.278;2023-08-12T09:03:37;4.60;;;4.30;;
9968;SDS011;5025;48.890;9.278;2023-08-12T09:06:03;5.03;;;4.70;;
9968;SDS011;5025;48.890;9.278;2023-08-12T09:08:29;4.67;;;4.37;;
9968;SDS011;5025;48.890;9.278;2023-08-12T09:10:57;4.80;;;4.50;;
9968;SDS011;5025;48.890;9.278;2023-08-12T09:13:24;4.00;;;3.80;;
9968;SDS011;5025;48.890;9.278;2023-08-12T09:15:49;4.50;;;4.20;;
9968;SDS011;5025;48.890;9.278;2023-08-12T09:18:15;4.30;;;4.00;;
9968;SDS011;5025;48.890;9.278;2023-08-12T09:20:41;4.70;;;4.40;;
9968;SDS011;5025;48.890;9.278;2023-08-12T09:23:08;4.40;;;4.10;;
9968;SDS011;5025;48.890;9.278;2023-08-12T09:25:35;4.17;;;3.90;;
9968;SDS011;5025;48.890;9.278;2023-08-12T09:28:00;4.90;;;4.60;;
9968;SDS011;5025;48.890;9.278;2023-08-12T09:30:29;4.57;;;4.27;;
9968;SDS011;5025;48.890;9.278;2023-08-12T09:33:00;4.83;;;4.53;;
9968;SDS011;5025;48.890;9.278;2023-08-12T09:35:35;4.93;;;4.43;;
9968;SDS011;5025;48.890;9.278;2023-08-12T09:38:05;5.00;;;4.60;;
9968;SDS011;5025;48.890;9.278;2023-08-12T09:40:33;4.90;;;4.60;;
9968;SDS011;5025;48.890;9.278;2023-08-12T09:43:00;5.10;;;4.70;;
9968;SDS011;5025;48.890;9.278;2023-08-12T09:45:25;4.83;;;4.50;;
9968;SDS011;5025;48.890;9.278;2023-08-12T09:47:52;4.30;;;4.00;;
9968;SDS011;5025;48.890;9.278;2023-08-12T09:50:20;4.40;;;3.97;;
9968;SDS011;5025;48.890;9.278;2023-08-12T09:52:46;4.00;;;3.80;;
9968;SDS011;5025;48.890;9.278;2023-08-12T09:55:12;4.07;;;3.87;;
9968;SDS011;5025;48.890;9.278;2023-08-12T09:57:42;4.47;;;4.23;;
9968;SDS011;5025;48.890;9.278;2023-08-12T10:00:09;4.50;;;4.20;;
9968;SDS011;5025;48.890;9.278;2023-08-12T10:02:41;4.60;;;4.30;;
9968;SDS011;5025;48.890;9.278;2023-08-12T10:05:11;4.27;;;4.07;;
9968;SDS011;5025;48.890;9.278;2023-08-12T10:07:43;4.03;;;3.83;;
9968;SDS011;5025;48.890;9.278;2023-08-12T10:10:10;4.20;;;3.90;;
9968;SDS011;5025;48.890;9.278;2023-08-12T10:12:37;4.00;;;3.80;;
9968;SDS011;5025;48.890;9.278;2023-08-12T10:15:04;3.67;;;3.47;;
9968;SDS011;5025;48.890;9.278;2023-08-12T10:17:30;3.80;;;3.60;;
9968;SDS011;5025;48.890;9.278;2023-08-12T10:19:57;3.30;;;3.20;;
9968;SDS011;5025;48.890;9.278;2023-08-12T10:22:23;3.47;;;3.27;;
9968;SDS011;5025;48.890;9.278;2023-08-12T10:24:50;3.40;;;3.20;;
9968;SDS011;5025;48.890;9.278;2023-08-12T10:27:16;3.30;;;3.20;;
9968;SDS011;5025;48.890;9.278;2023-08-12T10:29:42;3.50;;;3.30;;
9968;SDS011;5025;48.890;9.278;2023-08-12T10:32:08;3.30;;;3.10;;
9968;SDS011;5025;48.890;9.278;2023-08-12T10:34:34;3.20;;;3.10;;
9968;SDS011;5025;48.890;9.278;2023-08-12T10:37:02;3.17;;;3.03;;
9968;SDS011;5025;48.890;9.278;2023-08-12T10:39:28;2.97;;;2.87;;
9968;SDS011;5025;48.890;9.278;2023-08-12T10:41:56;2.90;;;2.80;;
9968;SDS011;5025;48.890;9.278;2023-08-12T10:44:21;3.40;;;3.20;;
9968;SDS011;5025;48.890;9.278;2023-08-12T10:46:51;3.70;;;3.40;;
9968;SDS011;5025;48.890;9.278;2023-08-12T10:49:21;3.70;;;3.50;;
9968;SDS011;5025;48.890;9.278;2023-08-12T10:54:26;3.63;;;3.43;;
9968;SDS011;5025;48.890;9.278;2023-08-12T11:02:18;3.80;;;3.50;;
9968;SDS011;5025;48.890;9.278;2023-08-12T11:04:48;4.13;;;3.37;;
9968;SDS011;5025;48.890;9.278;2023-08-12T11:07:14;4.40;;;3.53;;
9968;SDS011;5025;48.890;9.278;2023-08-12T11:09:41;4.03;;;3.73;;
9968;SDS011;5025;48.890;9.278;2023-08-12T11:12:06;3.30;;;3.10;;
9968;SDS011;5025;48.890;9.278;2023-08-12T11:14:33;3.60;;;3.30;;
9968;SDS011;5025;48.890;9.278;2023-08-12T11:17:15;3.40;;;3.20;;
9968;SDS011;5025;48.890;9.278;2023-08-12T11:19:41;3.60;;;3.30;;
9968;SDS011;5025;48.890;9.278;2023-08-12T11:22:07;3.33;;;3.13;;
9968;SDS011;5025;48.890;9.278;2023-08-12T11:24:33;3.10;;;2.90;;
9968;SDS011;5025;48.890;9.278;2023-08-12T11:27:01;3.60;;;3.30;;
9968;SDS011;5025;48.890;9.278;2023-08-12T11:29:26;3.40;;;3.20;;
9968;SDS011;5025;48.890;9.278;2023-08-12T11:31:51;3.60;;;3.30;;
9968;SDS011;5025;48.890;9.278;2023-08-12T11:34:16;3.30;;;3.00;;
9968;SDS011;5025;48.890;9.278;2023-08-12T11:36:42;3.07;;;2.87;;
9968;SDS011;5025;48.890;9.278;2023-08-12T11:39:07;3.37;;;3.10;;
9968;SDS011;5025;48.890;9.278;2023-08-12T11:41:36;3.40;;;3.20;;
9968;SDS011;5025;48.890;9.278;2023-08-12T11:44:01;3.30;;;3.00;;
9968;SDS011;5025;48.890;9.278;2023-08-12T11:46:27;3.50;;;3.20;;
9968;SDS011;5025;48.890;9.278;2023-08-12T11:48:52;3.53;;;3.23;;
9968;SDS011;5025;48.890;9.278;2023-08-12T11:51:17;3.40;;;3.20;;
9968;SDS011;5025;48.890;9.278;2023-08-12T11:53:43;3.43;;;3.13;;
9968;SDS011;5025;48.890;9.278;2023-08-12T11:56:08;3.40;;;3.20;;
9968;SDS011;5025;48.890;9.278;2023-08-12T11:58:36;3.30;;;3.10;;
9968;SDS011;5025;48.890;9.278;2023-08-12T12:01:02;3.43;;;3.10;;
9968;SDS011;5025;48.890;9.278;2023-08-12T12:03:27;9.17;;;2.83;;
9968;SDS011;5025;48.890;9.278;2023-08-12T12:05:55;3.00;;;2.50;;
9968;SDS011;5025;48.890;9.278;2023-08-12T12:08:20;3.13;;;2.70;;
9968;SDS011;5025;48.890;9.278;2023-08-12T12:10:46;4.23;;;2.00;;
9968;SDS011;5025;48.890;9.278;2023-08-12T12:13:12;2.03;;;1.93;;
9968;SDS011;5025;48.890;9.278;2023-08-12T12:15:42;2.53;;;2.33;;
9968;SDS011;5025;48.890;9.278;2023-08-12T12:18:11;2.50;;;2.30;;
9968;SDS011;5025;48.890;9.278;2023-08-12T12:20:42;2.53;;;2.23;;
9968;SDS011;5025;48.890;9.278;2023-08-12T12:23:18;2.37;;;2.10;;
9968;SDS011;5025;48.890;9.278;2023-08-12T12:25:43;2.17;;;1.83;;
9968;SDS011;5025;48.890;9.278;2023-08-12T12:28:10;4.60;;;2.53;;
9968;SDS011;5025;48.890;9.278;2023-08-12T12:30:35;3.03;;;2.40;;
9968;SDS011;5025;48.890;9.278;2023-08-12T12:33:01;3.20;;;2.47;;
9968;SDS011;5025;48.890;9.278;2023-08-12T12:35:26;2.50;;;2.30;;
9968;SDS011;5025;48.890;9.278;2023-08-12T12:37:52;2.20;;;2.00;;
9968;SDS011;5025;48.890;9.278;2023-08-12T12:40:17;2.43;;;2.10;;
9968;SDS011;5025;48.890;9.278;2023-08-12T12:42:42;2.50;;;2.30;;
9968;SDS011;5025;48.890;9.278;2023-08-12T12:45:07;2.30;;;2.20;;
9968;SDS011;5025;48.890;9.278;2023-08-12T12:47:33;2.23;;;2.13;;
9968;SDS011;5025;48.890;9.278;2023-08-12T12:49:59;2.30;;;2.20;;
9968;SDS011;5025;48.890;9.278;2023-08-12T12:52:24;2.40;;;2.20;;
9968;SDS011;5025;48.890;9.278;2023-08-12T12:54:49;2.30;;;2.20;;
9968;SDS011;5025;48.890;9.278;2023-08-12T12:57:15;2.30;;;2.10;;
9968;SDS011;5025;48.890;9.278;2023-08-12T12:59:40;2.10;;;2.00;;
9968;SDS011;5025;48.890;9.278;2023-08-12T13:02:05;2.10;;;2.00;;
9968;SDS011;5025;48.890;9.278;2023-08-12T13:04:30;2.20;;;2.10;;
9968;SDS011;5025;48.890;9.278;2023-08-12T13:06:56;2.33;;;2.20;;
9968;SDS011;5025;48.890;9.278;2023-08-12T13:09:21;1.90;;;1.80;;
9968;SDS011;5025;48.890;9.278;2023-08-12T13:11:46;2.00;;;1.90;;
9968;SDS011;5025;48.890;9.278;2023-08-12T13:14:11;2.13;;;2.03;;
9968;SDS011;5025;48.890;9.278;2023-08-12T13:16:37;2.00;;;1.90;;
9968;SDS011;5025;48.890;9.278;2023-08-12T13:19:02;2.10;;;2.00;;
9968;SDS011;5025;48.890;9.278;2023-08-12T13:21:27;2.10;;;1.97;;
9968;SDS011;5025;48.890;9.278;2023-08-12T13:23:53;2.00;;;1.90;;
9968;SDS011;5025;48.890;9.278;2023-08-12T13:26:20;2.10;;;2.00;;
9968;SDS011;5025;48.890;9.278;2023-08-12T13:28:46;2.20;;;2.03;;
9968;SDS011;5025;48.890;9.278;2023-08-12T13:31:12;2.10;;;2.00;;
9968;SDS011;5025;48.890;9.278;2023-08-12T13:33:37;2.10;;;2.00;;
9968;SDS011;5025;48.890;9.278;2023-08-12T13:36:02;2.20;;;2.10;;
9968;SDS011;5025;48.890;9.278;2023-08-12T13:38:28;2.37;;;2.23;;
9968;SDS011;5025;48.890;9.278;2023-08-12T13:40:53;2.57;;;2.47;;
9968;SDS011;5025;48.890;9.278;2023-08-12T13:43:18;2.40;;;2.20;;
9968;SDS011;5025;48.890;9.278;2023-08-12T13:45:43;2.77;;;2.57;;
9968;SDS011;5025;48.890;9.278;2023-08-12T13:48:09;3.07;;;2.80;;
9968;SDS011;5025;48.890;9.278;2023-08-12T13:50:34;2.77;;;2.57;;
9968;SDS011;5025;48.890;9.278;2023-08-12T13:52:59;2.70;;;2.50;;
9968;SDS011;5025;48.890;9.278;2023-08-12T13:55:25;2.73;;;2.53;;
9968;SDS011;5025;48.890;9.278;2023-08-12T13:57:51;2.47;;;2.37;;
9968;SDS011;5025;48.890;9.278;2023-08-12T14:00:16;2.60;;;2.50;;
9968;SDS011;5025;48.890;9.278;2023-08-12T14:02:42;2.70;;;2.50;;
9968;SDS011;5025;48.890;9.278;2023-08-12T14:05:07;3.30;;;3.00;;
9968;SDS011;5025;48.890;9.278;2023-08-12T14:07:33;2.97;;;2.70;;
9968;SDS011;5025;48.890;9.278;2023-08-12T14:09:58;2.80;;;2.60;;
9968;SDS011;5025;48.890;9.278;2023-08-12T14:12:24;3.47;;;2.90;;
9968;SDS011;5025;48.890;9.278;2023-08-12T14:14:50;3.10;;;2.90;;
9968;SDS011;5025;48.890;9.278;2023-08-12T14:17:15;3.40;;;3.00;;
9968;SDS011;5025;48.890;9.278;2023-08-12T14:19:43;3.07;;;2.87;;
9968;SDS011;5025;48.890;9.278;2023-08-12T14:22:12;2.93;;;2.73;;
9968;SDS011;5025;48.890;9.278;2023-08-12T14:24:38;3.03;;;2.83;;
9968;SDS011;5025;48.890;9.278;2023-08-12T14:27:03;3.20;;;3.00;;
9968;SDS011;5025;48.890;9.278;2023-08-12T14:29:29;3.10;;;2.90;;
9968;SDS011;5025;48.890;9.278;2023-08-12T14:31:54;3.10;;;2.90;;
9968;SDS011;5025;48.890;9.278;2023-08-12T14:34:20;2.80;;;2.60;;
9968;SDS011;5025;48.890;9.278;2023-08-12T14:36:45;3.63;;;2.73;;
9968;SDS011;5025;48.890;9.278;2023-08-12T14:39:10;3.20;;;3.00;;
9968;SDS011;5025;48.890;9.278;2023-08-12T14:41:36;3.20;;;3.00;;
9968;SDS011;5025;48.890;9.278;2023-08-12T14:44:01;3.20;;;3.00;;
9968;SDS011;5025;48.890;9.278;2023-08-12T14:46:26;3.00;;;2.80;;
9968;SDS011;5025;48.890;9.278;2023-08-12T14:48:52;3.17;;;2.87;;
9968;SDS011;5025;48.890;9.278;2023-08-12T14:51:18;2.93;;;2.80;;
9968;SDS011;5025;48.890;9.278;2023-08-12T14:53:43;2.70;;;2.60;;
9968;SDS011;5025;48.890;9.278;2023-08-12T14:56:09;3.10;;;2.90;;
9968;SDS011;5025;48.890;9.278;2023-08-12T14:58:34;3.27;;;3.07;;
9968;SDS011;5025;48.890;9.278;2023-08-12T15:01:00;3.33;;;3.13;;
9968;SDS011;5025;48.890;9.278;2023-08-12T15:03:27;3.30;;;3.10;;
9968;SDS011;5025;48.890;9.278;2023-08-12T15:06:02;3.40;;;3.20;;
9968;SDS011;5025;48.890;9.278;2023-08-12T15:08:29;3.13;;;2.93;;
9968;SDS011;5025;48.890;9.278;2023-08-12T15:10:55;3.30;;;3.10;;
9968;SDS011;5025;48.890;9.278;2023-08-12T15:13:20;3.43;;;3.23;;
9968;SDS011;5025;48.890;9.278;2023-08-12T15:15:46;3.27;;;2.83;;